sensor_id;sensor_type;location;lat;lon;timestamp;pressure;altitude;pressure_sealevel;temperature;humidity
3122;BME280;1571;52.524;14.104;2023-02-01T00:01:23;100439.44;;;3.48;100.00
3122;BME280;1571;52.524;14.104;2023-02-01T00:03:51;100438.38;;;3.54;100.00
3122;BME280;1571;52.524;14.104;2023-02-01T00:06:19;100441.19;;;3.49;100.00
3122;BME280;1571;52.524;14.104;2023-02-01T00:08:47;100429.94;;;3.46;100.00
3122;BME280;1571;52.524;14.104;2023-02-01T00:11:17;100435.06;;;3.49;100.00
3122;BME280;1571;52.524;14.104;2023-02-01T00:13:45;100428.91;;;3.50;100.00
3122;BME280;1571;52.524;14.104;2023-02-01T00:16:15;100436.09;;;3.45;100.00
3122;BME280;1571;52.524;14.104;2023-02-01T00:18:45;100422.72;;;3.51;100.00
3122;BME280;1571;52.524;14.104;2023-02-01T00:21:16;100434.09;;;3.51;100.00
3122;BME280;1571;52.524;14.104;2023-02-01T00:23:45;100438.56;;;3.49;100.00
3122;BME280;1571;52.524;14.104;2023-02-01T00:26:18;100432.38;;;3.50;100.00
3122;BME280;1571;52.524;14.104;2023-02-01T00:28:48;100434.91;;;3.53;100.00
3122;BME280;1571;52.524;14.104;2023-02-01T00:31:16;100435.13;;;3.47;100.00
3122;BME280;1571;52.524;14.104;2023-02-01T00:33:46;100427.75;;;3.57;100.00
3122;BME280;1571;52.524;14.104;2023-02-01T00:36:15;100442.66;;;3.57;100.00
3122;BME280;1571;52.524;14.104;2023-02-01T00:38:43;100438.88;;;3.64;100.00
3122;BME280;1571;52.524;14.104;2023-02-01T00:41:14;100433.75;;;3.61;100.00
3122;BME280;1571;52.524;14.104;2023-02-01T00:43:44;100445.31;;;3.55;100.00
3122;BME280;1571;52.524;14.104;2023-02-01T00:46:14;100446.31;;;3.52;100.00
3122;BME280;1571;52.524;14.104;2023-02-01T00:48:43;100442.53;;;3.60;100.00
3122;BME280;1571;52.524;14.104;2023-02-01T00:51:13;100439.97;;;3.58;100.00
3122;BME280;1571;52.524;14.104;2023-02-01T00:53:41;100441.44;;;3.65;100.00
3122;BME280;1571;52.524;14.104;2023-02-01T00:56:10;100441.38;;;3.67;100.00
3122;BME280;1571;52.524;14.104;2023-02-01T00:58:38;100436.19;;;3.65;100.00
3122;BME280;1571;52.524;14.104;2023-02-01T01:01:10;100437.78;;;3.69;100.00
3122;BME280;1571;52.524;14.104;2023-02-01T01:03:41;100426.91;;;3.57;100.00
3122;BME280;1571;52.524;14.104;2023-02-01T01:06:11;100433.75;;;3.61;100.00
3122;BME280;1571;52.524;14.104;2023-02-01T01:08:41;100438.47;;;3.51;100.00
3122;BME280;1571;52.524;14.104;2023-02-01T01:11:12;100439.41;;;3.50;100.00
3122;BME280;1571;52.524;14.104;2023-02-01T01:13:42;100424.28;;;3.57;100.00
3122;BME280;1571;52.524;14.104;2023-02-01T01:16:11;100412.63;;;3.64;99.87
3122;BME280;1571;52.524;14.104;2023-02-01T01:18:40;100445.78;;;3.66;99.29
3122;BME280;1571;52.524;14.104;2023-02-01T01:21:09;100433.03;;;3.79;98.94
3122;BME280;1571;52.524;14.104;2023-02-01T01:23:39;100443.16;;;3.88;98.08
3122;BME280;1571;52.524;14.104;2023-02-01T01:26:08;100433.50;;;3.89;97.72
3122;BME280;1571;52.524;14.104;2023-02-01T01:28:37;100436.88;;;3.92;97.42
3122;BME280;1571;52.524;14.104;2023-02-01T01:31:07;100429.09;;;3.89;97.09
3122;BME280;1571;52.524;14.104;2023-02-01T01:33:37;100422.78;;;3.95;96.42
3122;BME280;1571;52.524;14.104;2023-02-01T01:36:08;100408.53;;;4.01;95.74
3122;BME280;1571;52.524;14.104;2023-02-01T01:38:38;100412.06;;;4.00;95.71
3122;BME280;1571;52.524;14.104;2023-02-01T01:41:08;100414.84;;;3.96;95.39
3122;BME280;1571;52.524;14.104;2023-02-01T01:43:50;100407.06;;;3.93;95.51
3122;BME280;1571;52.524;14.104;2023-02-01T01:46:21;100415.03;;;3.92;95.46
3122;BME280;1571;52.524;14.104;2023-02-01T01:48:58;100419.78;;;3.82;95.90
3122;BME280;1571;52.524;14.104;2023-02-01T01:51:30;100395.53;;;3.97;95.40
3122;BME280;1571;52.524;14.104;2023-02-01T01:54:02;100400.81;;;3.96;94.84
3122;BME280;1571;52.524;14.104;2023-02-01T01:56:32;100402.56;;;3.97;94.65
3122;BME280;1571;52.524;14.104;2023-02-01T01:59:03;100401.94;;;3.90;94.60
3122;BME280;1571;52.524;14.104;2023-02-01T02:01:32;100410.72;;;3.89;94.63
3122;BME280;1571;52.524;14.104;2023-02-01T02:04:02;100409.09;;;3.87;94.69
3122;BME280;1571;52.524;14.104;2023-02-01T02:06:37;100419.94;;;3.78;95.05
3122;BME280;1571;52.524;14.104;2023-02-01T02:09:07;100428.13;;;3.70;95.59
3122;BME280;1571;52.524;14.104;2023-02-01T02:11:35;100423.59;;;3.73;95.84
3122;BME280;1571;52.524;14.104;2023-02-01T02:14:04;100426.50;;;3.67;96.07
3122;BME280;1571;52.524;14.104;2023-02-01T02:19:57;100416.91;;;3.88;95.33
3122;BME280;1571;52.524;14.104;2023-02-01T02:26:15;100429.72;;;3.96;94.53
3122;BME280;1571;52.524;14.104;2023-02-01T02:32:39;100425.44;;;3.93;94.83
3122;BME280;1571;52.524;14.104;2023-02-01T02:35:16;100429.66;;;3.97;94.65
3122;BME280;1571;52.524;14.104;2023-02-01T02:37:55;100423.25;;;4.05;94.25
3122;BME280;1571;52.524;14.104;2023-02-01T02:40:31;100423.50;;;3.99;94.41
3122;BME280;1571;52.524;14.104;2023-02-01T02:43:05;100417.53;;;3.95;94.44
3122;BME280;1571;52.524;14.104;2023-02-01T02:46:01;100416.16;;;3.85;94.67
3122;BME280;1571;52.524;14.104;2023-02-01T02:49:01;100410.56;;;3.72;95.02
3122;BME280;1571;52.524;14.104;2023-02-01T02:51:36;100406.53;;;3.85;94.91
3122;BME280;1571;52.524;14.104;2023-02-01T02:54:25;100394.06;;;3.90;94.53
3122;BME280;1571;52.524;14.104;2023-02-01T02:57:19;100402.09;;;3.87;94.33
3122;BME280;1571;52.524;14.104;2023-02-01T03:00:08;100396.63;;;3.70;94.73
3122;BME280;1571;52.524;14.104;2023-02-01T03:02:56;100402.78;;;3.69;94.86
3122;BME280;1571;52.524;14.104;2023-02-01T03:05:43;100410.19;;;3.81;94.55
3122;BME280;1571;52.524;14.104;2023-02-01T03:08:17;100401.75;;;3.73;94.67
3122;BME280;1571;52.524;14.104;2023-02-01T03:10:51;100410.56;;;3.72;94.65
3122;BME280;1571;52.524;14.104;2023-02-01T03:13:28;100399.78;;;3.78;94.53
3122;BME280;1571;52.524;14.104;2023-02-01T03:16:01;100411.09;;;3.80;94.67
3122;BME280;1571;52.524;14.104;2023-02-01T03:18:36;100406.09;;;3.74;94.64
3122;BME280;1571;52.524;14.104;2023-02-01T03:21:11;100394.53;;;3.78;94.38
3122;BME280;1571;52.524;14.104;2023-02-01T03:23:43;100395.41;;;3.79;94.49
3122;BME280;1571;52.524;14.104;2023-02-01T03:26:14;100395.78;;;3.69;94.52
3122;BME280;1571;52.524;14.104;2023-02-01T03:28:48;100390.44;;;3.71;94.68
3122;BME280;1571;52.524;14.104;2023-02-01T03:31:17;100398.22;;;3.74;94.77
3122;BME280;1571;52.524;14.104;2023-02-01T03:33:46;100394.81;;;3.72;94.82
3122;BME280;1571;52.524;14.104;2023-02-01T03:36:20;100392.41;;;3.66;94.96
3122;BME280;1571;52.524;14.104;2023-02-01T03:38:59;100390.59;;;3.68;95.07
3122;BME280;1571;52.524;14.104;2023-02-01T03:41:35;100395.03;;;3.66;95.06
3122;BME280;1571;52.524;14.104;2023-02-01T03:44:10;100371.22;;;3.70;95.13
3122;BME280;1571;52.524;14.104;2023-02-01T03:46:43;100384.78;;;3.60;95.35
3122;BME280;1571;52.524;14.104;2023-02-01T03:49:23;100373.53;;;3.78;95.16
3122;BME280;1571;52.524;14.104;2023-02-01T03:51:55;100368.84;;;3.64;95.13
3122;BME280;1571;52.524;14.104;2023-02-01T03:54:26;100373.91;;;3.69;95.06
3122;BME280;1571;52.524;14.104;2023-02-01T03:56:57;100378.53;;;3.62;95.46
3122;BME280;1571;52.524;14.104;2023-02-01T03:59:28;100369.03;;;3.60;95.60
3122;BME280;1571;52.524;14.104;2023-02-01T04:01:57;100359.97;;;3.67;95.54
3122;BME280;1571;52.524;14.104;2023-02-01T04:04:25;100361.94;;;3.62;95.57
3122;BME280;1571;52.524;14.104;2023-02-01T04:06:55;100363.66;;;3.63;95.75
3122;BME280;1571;52.524;14.104;2023-02-01T04:09:25;100360.47;;;3.54;96.06
3122;BME280;1571;52.524;14.104;2023-02-01T04:11:53;100342.16;;;3.53;96.22
3122;BME280;1571;52.524;14.104;2023-02-01T04:14:22;100351.00;;;3.50;96.52
3122;BME280;1571;52.524;14.104;2023-02-01T04:16:50;100355.66;;;3.66;96.46
3122;BME280;1571;52.524;14.104;2023-02-01T04:19:18;100353.03;;;3.66;96.43
3122;BME280;1571;52.524;14.104;2023-02-01T04:21:46;100342.97;;;3.55;96.47
3122;BME280;1571;52.524;14.104;2023-02-01T04:24:15;100351.44;;;3.62;96.77
3122;BME280;1571;52.524;14.104;2023-02-01T04:26:44;100347.78;;;3.66;96.66
3122;BME280;1571;52.524;14.104;2023-02-01T04:29:12;100360.97;;;3.64;96.83
3122;BME280;1571;52.524;14.104;2023-02-01T04:31:41;100359.09;;;3.68;96.60
3122;BME280;1571;52.524;14.104;2023-02-01T04:34:10;100351.88;;;3.73;96.51
3122;BME280;1571;52.524;14.104;2023-02-01T04:36:38;100361.47;;;3.74;96.26
3122;BME280;1571;52.524;14.104;2023-02-01T04:39:08;100362.94;;;3.81;95.94
3122;BME280;1571;52.524;14.104;2023-02-01T04:41:36;100356.38;;;3.91;95.97
3122;BME280;1571;52.524;14.104;2023-02-01T04:44:07;100354.69;;;3.90;95.70
3122;BME280;1571;52.524;14.104;2023-02-01T04:46:37;100357.16;;;3.93;95.50
3122;BME280;1571;52.524;14.104;2023-02-01T04:49:08;100357.66;;;4.03;94.96
3122;BME280;1571;52.524;14.104;2023-02-01T04:51:36;100349.38;;;4.12;94.28
3122;BME280;1571;52.524;14.104;2023-02-01T04:54:06;100346.81;;;4.11;94.25
3122;BME280;1571;52.524;14.104;2023-02-01T04:56:34;100355.09;;;4.02;94.25
3122;BME280;1571;52.524;14.104;2023-02-01T04:59:02;100348.78;;;4.06;94.33
3122;BME280;1571;52.524;14.104;2023-02-01T05:01:32;100351.41;;;4.06;94.34
3122;BME280;1571;52.524;14.104;2023-02-01T05:04:00;100336.44;;;4.08;93.92
3122;BME280;1571;52.524;14.104;2023-02-01T05:06:29;100334.22;;;3.99;94.05
3122;BME280;1571;52.524;14.104;2023-02-01T05:08:57;100339.31;;;4.02;94.12
3122;BME280;1571;52.524;14.104;2023-02-01T05:11:25;100337.31;;;4.08;94.22
3122;BME280;1571;52.524;14.104;2023-02-01T05:14:11;100336.56;;;4.05;93.97
3122;BME280;1571;52.524;14.104;2023-02-01T05:16:40;100333.44;;;4.17;93.98
3122;BME280;1571;52.524;14.104;2023-02-01T05:19:08;100337.25;;;4.10;93.85
3122;BME280;1571;52.524;14.104;2023-02-01T05:21:37;100328.69;;;4.05;93.80
3122;BME280;1571;52.524;14.104;2023-02-01T05:24:06;100334.53;;;4.11;93.66
3122;BME280;1571;52.524;14.104;2023-02-01T05:26:40;100329.88;;;4.18;93.71
3122;BME280;1571;52.524;14.104;2023-02-01T05:29:09;100333.44;;;4.17;93.65
3122;BME280;1571;52.524;14.104;2023-02-01T05:31:38;100337.56;;;4.23;93.53
3122;BME280;1571;52.524;14.104;2023-02-01T05:34:08;100329.88;;;4.18;93.58
3122;BME280;1571;52.524;14.104;2023-02-01T05:36:36;100319.09;;;4.24;93.51
3122;BME280;1571;52.524;14.104;2023-02-01T05:39:04;100313.00;;;4.24;93.64
3122;BME280;1571;52.524;14.104;2023-02-01T05:41:32;100312.06;;;4.25;93.33
3122;BME280;1571;52.524;14.104;2023-02-01T05:44:01;100312.13;;;4.23;93.31
3122;BME280;1571;52.524;14.104;2023-02-01T05:46:29;100312.72;;;4.30;93.22
3122;BME280;1571;52.524;14.104;2023-02-01T05:48:57;100321.59;;;4.27;93.21
3122;BME280;1571;52.524;14.104;2023-02-01T05:51:27;100306.66;;;4.28;93.38
3122;BME280;1571;52.524;14.104;2023-02-01T05:53:55;100310.19;;;4.28;93.42
3122;BME280;1571;52.524;14.104;2023-02-01T05:56:23;100303.19;;;4.27;93.27
3122;BME280;1571;52.524;14.104;2023-02-01T05:58:52;100303.19;;;4.27;92.89
3122;BME280;1571;52.524;14.104;2023-02-01T06:01:20;100297.69;;;4.33;93.15
3122;BME280;1571;52.524;14.104;2023-02-01T06:03:48;100293.84;;;4.41;92.79
3122;BME280;1571;52.524;14.104;2023-02-01T06:06:16;100297.84;;;4.30;92.78
3122;BME280;1571;52.524;14.104;2023-02-01T06:08:47;100294.41;;;4.28;92.80
3122;BME280;1571;52.524;14.104;2023-02-01T06:11:15;100287.41;;;4.48;92.54
3122;BME280;1571;52.524;14.104;2023-02-01T06:13:58;100284.94;;;4.45;92.33
3122;BME280;1571;52.524;14.104;2023-02-01T06:16:26;100281.91;;;4.33;92.22
3122;BME280;1571;52.524;14.104;2023-02-01T06:18:55;100278.94;;;4.41;92.22
3122;BME280;1571;52.524;14.104;2023-02-01T06:21:23;100279.94;;;4.38;92.21
3122;BME280;1571;52.524;14.104;2023-02-01T06:23:53;100290.19;;;4.45;92.20
3122;BME280;1571;52.524;14.104;2023-02-01T06:26:21;100276.50;;;4.36;92.41
3122;BME280;1571;52.524;14.104;2023-02-01T06:28:50;100289.38;;;4.43;92.56
3122;BME280;1571;52.524;14.104;2023-02-01T06:31:18;100279.94;;;4.38;92.40
3122;BME280;1571;52.524;14.104;2023-02-01T06:33:47;100285.19;;;4.38;92.90
3122;BME280;1571;52.524;14.104;2023-02-01T06:36:15;100291.50;;;4.34;93.38
3122;BME280;1571;52.524;14.104;2023-02-01T06:38:45;100279.44;;;4.30;93.87
3122;BME280;1571;52.524;14.104;2023-02-01T06:41:15;100288.00;;;4.34;94.40
3122;BME280;1571;52.524;14.104;2023-02-01T06:43:43;100288.56;;;4.22;95.31
3122;BME280;1571;52.524;14.104;2023-02-01T06:46:12;100293.47;;;4.09;96.41
3122;BME280;1571;52.524;14.104;2023-02-01T06:48:41;100309.50;;;4.03;97.41
3122;BME280;1571;52.524;14.104;2023-02-01T06:51:19;100308.06;;;3.95;98.20
3122;BME280;1571;52.524;14.104;2023-02-01T06:53:48;100316.72;;;3.97;99.16
3122;BME280;1571;52.524;14.104;2023-02-01T06:56:18;100321.81;;;3.80;100.00
3122;BME280;1571;52.524;14.104;2023-02-01T06:58:47;100320.81;;;3.83;100.00
3122;BME280;1571;52.524;14.104;2023-02-01T07:01:16;100311.03;;;3.66;100.00
3122;BME280;1571;52.524;14.104;2023-02-01T07:03:47;100309.44;;;3.62;100.00
3122;BME280;1571;52.524;14.104;2023-02-01T07:06:15;100313.09;;;3.58;100.00
3122;BME280;1571;52.524;14.104;2023-02-01T07:08:44;100312.13;;;3.60;100.00
3122;BME280;1571;52.524;14.104;2023-02-01T07:11:13;100286.75;;;3.39;100.00
3122;BME280;1571;52.524;14.104;2023-02-01T07:13:44;100286.28;;;3.29;100.00
3122;BME280;1571;52.524;14.104;2023-02-01T07:16:15;100279.16;;;3.31;100.00
3122;BME280;1571;52.524;14.104;2023-02-01T07:18:44;100282.59;;;3.33;100.00
3122;BME280;1571;52.524;14.104;2023-02-01T07:21:12;100284.31;;;3.34;100.00
3122;BME280;1571;52.524;14.104;2023-02-01T07:23:41;100280.75;;;3.35;100.00
3122;BME280;1571;52.524;14.104;2023-02-01T07:26:11;100273.91;;;3.31;100.00
3122;BME280;1571;52.524;14.104;2023-02-01T07:28:40;100274.63;;;3.36;100.00
3122;BME280;1571;52.524;14.104;2023-02-01T07:31:12;100269.28;;;3.38;100.00
3122;BME280;1571;52.524;14.104;2023-02-01T07:33:42;100260.47;;;3.40;100.00
3122;BME280;1571;52.524;14.104;2023-02-01T07:36:12;100261.59;;;3.33;100.00
3122;BME280;1571;52.524;14.104;2023-02-01T07:38:41;100260.97;;;3.48;100.00
3122;BME280;1571;52.524;14.104;2023-02-01T07:41:09;100258.78;;;3.38;100.00
3122;BME280;1571;52.524;14.104;2023-02-01T07:43:38;100256.13;;;3.39;100.00
3122;BME280;1571;52.524;14.104;2023-02-01T07:46:06;100254.84;;;3.27;100.00
3122;BME280;1571;52.524;14.104;2023-02-01T07:48:36;100255.63;;;3.29;100.00
3122;BME280;1571;52.524;14.104;2023-02-01T07:51:07;100247.59;;;3.34;100.00
3122;BME280;1571;52.524;14.104;2023-02-01T07:53:36;100254.00;;;3.27;100.00
3122;BME280;1571;52.524;14.104;2023-02-01T07:56:10;100244.22;;;3.30;100.00
3122;BME280;1571;52.524;14.104;2023-02-01T07:58:39;100245.00;;;3.32;100.00
3122;BME280;1571;52.524;14.104;2023-02-01T08:01:13;100245.81;;;3.34;100.00
3122;BME280;1571;52.524;14.104;2023-02-01T08:03:49;100241.16;;;3.41;100.00
3122;BME280;1571;52.524;14.104;2023-02-01T08:06:18;100238.16;;;3.50;100.00
3122;BME280;1571;52.524;14.104;2023-02-01T08:08:48;100237.69;;;3.41;100.00
3122;BME280;1571;52.524;14.104;2023-02-01T08:11:17;100242.09;;;3.40;100.00
3122;BME280;1571;52.524;14.104;2023-02-01T08:13:45;100233.44;;;3.38;100.00
3122;BME280;1571;52.524;14.104;2023-02-01T08:16:15;100226.59;;;3.34;100.00
3122;BME280;1571;52.524;14.104;2023-02-01T08:18:44;100226.03;;;3.48;100.00
3122;BME280;1571;52.524;14.104;2023-02-01T08:21:15;100217.81;;;3.55;100.00
3122;BME280;1571;52.524;14.104;2023-02-01T08:23:44;100224.97;;;3.52;100.00
3122;BME280;1571;52.524;14.104;2023-02-01T08:26:16;100219.72;;;3.52;100.00
3122;BME280;1571;52.524;14.104;2023-02-01T08:28:47;100211.66;;;3.57;100.00
3122;BME280;1571;52.524;14.104;2023-02-01T08:31:17;100221.56;;;3.50;100.00
3122;BME280;1571;52.524;14.104;2023-02-01T08:33:49;100223.59;;;3.43;100.00
3122;BME280;1571;52.524;14.104;2023-02-01T08:36:22;100231.00;;;3.33;100.00
3122;BME280;1571;52.524;14.104;2023-02-01T08:38:51;100235.25;;;3.36;100.00
3122;BME280;1571;52.524;14.104;2023-02-01T08:41:21;100233.66;;;3.32;100.00
3122;BME280;1571;52.524;14.104;2023-02-01T08:43:50;100239.94;;;3.28;100.00
3122;BME280;1571;52.524;14.104;2023-02-01T08:46:18;100238.25;;;3.27;100.00
3122;BME280;1571;52.524;14.104;2023-02-01T08:48:47;100234.75;;;3.26;100.00
3122;BME280;1571;52.524;14.104;2023-02-01T08:51:17;100239.53;;;3.17;100.00
3122;BME280;1571;52.524;14.104;2023-02-01T08:53:47;100245.75;;;3.14;100.00
3122;BME280;1571;52.524;14.104;2023-02-01T08:56:17;100249.59;;;3.05;100.00
3122;BME280;1571;52.524;14.104;2023-02-01T08:58:45;100250.09;;;2.93;100.00
3122;BME280;1571;52.524;14.104;2023-02-01T09:01:15;100247.91;;;2.81;100.00
3122;BME280;1571;52.524;14.104;2023-02-01T09:03:44;100251.56;;;2.77;100.00
3122;BME280;1571;52.524;14.104;2023-02-01T09:06:14;100248.75;;;2.81;100.00
3122;BME280;1571;52.524;14.104;2023-02-01T09:08:43;100251.00;;;2.68;100.00
3122;BME280;1571;52.524;14.104;2023-02-01T09:11:14;100263.88;;;2.75;100.00
3122;BME280;1571;52.524;14.104;2023-02-01T09:13:43;100252.78;;;2.68;100.00
3122;BME280;1571;52.524;14.104;2023-02-01T09:16:11;100260.47;;;2.73;100.00
3122;BME280;1571;52.524;14.104;2023-02-01T09:18:40;100257.72;;;2.76;100.00
3122;BME280;1571;52.524;14.104;2023-02-01T09:21:28;100263.31;;;2.66;100.00
3122;BME280;1571;52.524;14.104;2023-02-01T09:23:57;100260.91;;;2.60;100.00
3122;BME280;1571;52.524;14.104;2023-02-01T09:26:27;100269.44;;;2.65;100.00
3122;BME280;1571;52.524;14.104;2023-02-01T09:28:59;100276.50;;;2.63;100.00
3122;BME280;1571;52.524;14.104;2023-02-01T09:31:27;100278.13;;;2.67;100.00
3122;BME280;1571;52.524;14.104;2023-02-01T09:33:56;100276.38;;;2.68;100.00
3122;BME280;1571;52.524;14.104;2023-02-01T09:36:24;100273.59;;;2.73;100.00
3122;BME280;1571;52.524;14.104;2023-02-01T09:38:55;100280.34;;;2.78;100.00
3122;BME280;1571;52.524;14.104;2023-02-01T09:41:35;100288.38;;;2.74;100.00
3122;BME280;1571;52.524;14.104;2023-02-01T09:44:14;100288.50;;;2.70;100.00
3122;BME280;1571;52.524;14.104;2023-02-01T09:46:45;100293.50;;;2.77;100.00
3122;BME280;1571;52.524;14.104;2023-02-01T09:49:18;100289.41;;;2.93;100.00
3122;BME280;1571;52.524;14.104;2023-02-01T09:51:51;100304.78;;;3.02;100.00
3122;BME280;1571;52.524;14.104;2023-02-01T09:54:23;100300.00;;;2.90;100.00
3122;BME280;1571;52.524;14.104;2023-02-01T09:56:56;100302.34;;;2.98;100.00
3122;BME280;1571;52.524;14.104;2023-02-01T09:59:31;100300.97;;;3.11;100.00
3122;BME280;1571;52.524;14.104;2023-02-01T10:02:03;100311.63;;;3.06;100.00
3122;BME280;1571;52.524;14.104;2023-02-01T10:04:33;100305.63;;;3.03;100.00
3122;BME280;1571;52.524;14.104;2023-02-01T10:07:08;100299.53;;;3.02;100.00
3122;BME280;1571;52.524;14.104;2023-02-01T10:09:50;100310.72;;;3.07;100.00
3122;BME280;1571;52.524;14.104;2023-02-01T10:12:51;100295.78;;;3.09;100.00
3122;BME280;1571;52.524;14.104;2023-02-01T10:15:40;100304.22;;;3.18;100.00
3122;BME280;1571;52.524;14.104;2023-02-01T10:18:28;100300.66;;;3.19;100.00
3122;BME280;1571;52.524;14.104;2023-02-01T10:21:03;100295.19;;;3.25;100.00
3122;BME280;1571;52.524;14.104;2023-02-01T10:23:58;100294.91;;;3.31;100.00
3122;BME280;1571;52.524;14.104;2023-02-01T10:26:45;100303.72;;;3.52;100.00
3122;BME280;1571;52.524;14.104;2023-02-01T10:29:19;100291.25;;;3.57;100.00
3122;BME280;1571;52.524;14.104;2023-02-01T10:31:48;100296.88;;;3.70;100.00
3122;BME280;1571;52.524;14.104;2023-02-01T10:34:20;100292.34;;;3.73;100.00
3122;BME280;1571;52.524;14.104;2023-02-01T10:36:53;100294.25;;;3.70;100.00
3122;BME280;1571;52.524;14.104;2023-02-01T10:39:23;100300.91;;;3.57;100.00
3122;BME280;1571;52.524;14.104;2023-02-01T10:41:51;100300.66;;;3.63;100.00
3122;BME280;1571;52.524;14.104;2023-02-01T10:44:23;100301.13;;;3.72;100.00
3122;BME280;1571;52.524;14.104;2023-02-01T10:46:52;100298.56;;;3.71;100.00
3122;BME280;1571;52.524;14.104;2023-02-01T10:49:26;100300.94;;;3.77;100.00
3122;BME280;1571;52.524;14.104;2023-02-01T10:52:02;100294.41;;;3.87;100.00
3122;BME280;1571;52.524;14.104;2023-02-01T10:54:35;100290.72;;;3.91;100.00
3122;BME280;1571;52.524;14.104;2023-02-01T10:57:07;100286.72;;;4.03;100.00
3122;BME280;1571;52.524;14.104;2023-02-01T10:59:37;100283.63;;;3.93;100.00
3122;BME280;1571;52.524;14.104;2023-02-01T11:02:25;100275.09;;;3.88;100.00
3122;BME280;1571;52.524;14.104;2023-02-01T11:05:00;100281.78;;;3.95;100.00
3122;BME280;1571;52.524;14.104;2023-02-01T11:07:29;100260.38;;;3.84;100.00
3122;BME280;1571;52.524;14.104;2023-02-01T11:09:58;100264.34;;;3.94;100.00
3122;BME280;1571;52.524;14.104;2023-02-01T11:12:29;100261.22;;;4.05;100.00
3122;BME280;1571;52.524;14.104;2023-02-01T11:15:03;100262.59;;;4.14;100.00
3122;BME280;1571;52.524;14.104;2023-02-01T11:17:34;100271.41;;;4.33;100.00
3122;BME280;1571;52.524;14.104;2023-02-01T11:20:08;100261.03;;;4.30;100.00
3122;BME280;1571;52.524;14.104;2023-02-01T11:22:45;100246.31;;;4.26;100.00
3122;BME280;1571;52.524;14.104;2023-02-01T11:25:16;100255.06;;;4.27;100.00
3122;BME280;1571;52.524;14.104;2023-02-01T11:27:46;100251.38;;;4.31;100.00
3122;BME280;1571;52.524;14.104;2023-02-01T11:30:30;100238.94;;;4.34;100.00
3122;BME280;1571;52.524;14.104;2023-02-01T11:33:00;100242.81;;;4.46;100.00
3122;BME280;1571;52.524;14.104;2023-02-01T11:35:35;100237.91;;;4.57;100.00
3122;BME280;1571;52.524;14.104;2023-02-01T11:38:12;100239.66;;;4.57;100.00
3122;BME280;1571;52.524;14.104;2023-02-01T11:40:42;100229.88;;;4.61;100.00
3122;BME280;1571;52.524;14.104;2023-02-01T11:43:15;100238.69;;;4.78;100.00
3122;BME280;1571;52.524;14.104;2023-02-01T11:45:55;100231.09;;;4.72;100.00
3122;BME280;1571;52.524;14.104;2023-02-01T11:48:25;100237.75;;;4.79;100.00
3122;BME280;1571;52.524;14.104;2023-02-01T11:51:02;100237.00;;;4.77;100.00
3122;BME280;1571;52.524;14.104;2023-02-01T11:53:43;100228.19;;;4.78;100.00
3122;BME280;1571;52.524;14.104;2023-02-01T11:56:19;100241.06;;;4.85;100.00
3122;BME280;1571;52.524;14.104;2023-02-01T11:59:04;100237.28;;;4.71;100.00
3122;BME280;1571;52.524;14.104;2023-02-01T12:01:58;100235.06;;;4.62;100.00
3122;BME280;1571;52.524;14.104;2023-02-01T12:05:00;100238.41;;;4.85;100.00
3122;BME280;1571;52.524;14.104;2023-02-01T12:10:34;100224.84;;;4.94;100.00
3122;BME280;1571;52.524;14.104;2023-02-01T12:13:14;100210.06;;;4.91;100.00
3122;BME280;1571;52.524;14.104;2023-02-01T12:15:56;100210.69;;;4.96;100.00
3122;BME280;1571;52.524;14.104;2023-02-01T12:18:58;100218.84;;;5.27;100.00
3122;BME280;1571;52.524;14.104;2023-02-01T12:21:48;100211.06;;;5.25;100.00
3122;BME280;1571;52.524;14.104;2023-02-01T12:24:33;100206.66;;;5.26;100.00
3122;BME280;1571;52.524;14.104;2023-02-01T12:27:17;100200.81;;;5.19;100.00
3122;BME280;1571;52.524;14.104;2023-02-01T12:30:02;100202.31;;;5.25;100.00
3122;BME280;1571;52.524;14.104;2023-02-01T12:32:49;100184.66;;;5.27;100.00
3122;BME280;1571;52.524;14.104;2023-02-01T12:35:36;100184.06;;;5.39;100.00
3122;BME280;1571;52.524;14.104;2023-02-01T12:38:19;100169.81;;;5.43;100.00
3122;BME280;1571;52.524;14.104;2023-02-01T12:41:02;100170.91;;;5.39;100.00
3122;BME280;1571;52.524;14.104;2023-02-01T12:43:38;100171.28;;;5.49;100.00
3122;BME280;1571;52.524;14.104;2023-02-01T12:46:12;100162.22;;;5.54;100.00
3122;BME280;1571;52.524;14.104;2023-02-01T12:48:53;100165.31;;;5.62;100.00
3122;BME280;1571;52.524;14.104;2023-02-01T12:51:26;100167.78;;;5.48;100.00
3122;BME280;1571;52.524;14.104;2023-02-01T12:54:00;100150.44;;;5.44;100.00
3122;BME280;1571;52.524;14.104;2023-02-01T12:56:33;100153.31;;;5.39;99.89
3122;BME280;1571;52.524;14.104;2023-02-01T12:59:05;100148.44;;;5.32;99.91
3122;BME280;1571;52.524;14.104;2023-02-01T13:01:42;100151.22;;;5.29;99.58
3122;BME280;1571;52.524;14.104;2023-02-01T13:04:19;100160.03;;;5.28;99.49
3122;BME280;1571;52.524;14.104;2023-02-01T13:06:52;100148.28;;;5.35;99.45
3122;BME280;1571;52.524;14.104;2023-02-01T13:09:26;100151.00;;;5.16;99.25
3122;BME280;1571;52.524;14.104;2023-02-01T13:11:58;100145.41;;;5.22;99.59
3122;BME280;1571;52.524;14.104;2023-02-01T13:14:33;100158.06;;;4.96;100.00
3122;BME280;1571;52.524;14.104;2023-02-01T13:17:06;100160.59;;;4.80;100.00
3122;BME280;1571;52.524;14.104;2023-02-01T13:19:43;100177.03;;;4.67;100.00
3122;BME280;1571;52.524;14.104;2023-02-01T13:22:17;100197.56;;;4.40;100.00
3122;BME280;1571;52.524;14.104;2023-02-01T13:24:50;100254.47;;;4.20;100.00
3122;BME280;1571;52.524;14.104;2023-02-01T13:27:19;100258.19;;;3.09;100.00
3122;BME280;1571;52.524;14.104;2023-02-01T13:29:53;100252.34;;;2.79;100.00
3122;BME280;1571;52.524;14.104;2023-02-01T13:35:48;100218.13;;;2.60;100.00
3122;BME280;1571;52.524;14.104;2023-02-01T13:41:25;100218.97;;;2.60;100.00
3122;BME280;1571;52.524;14.104;2023-02-01T13:43:59;100201.94;;;2.72;100.00
3122;BME280;1571;52.524;14.104;2023-02-01T13:46:28;100211.69;;;2.68;100.00
3122;BME280;1571;52.524;14.104;2023-02-01T13:49:00;100208.78;;;2.76;100.00
3122;BME280;1571;52.524;14.104;2023-02-01T13:51:36;100202.19;;;2.88;100.00
3122;BME280;1571;52.524;14.104;2023-02-01T13:54:06;100204.88;;;2.86;100.00